sensor_id;sensor_type;location;lat;lon;timestamp;P1;durP1;ratioP1;P2;durP2;ratioP2
72235;SDS011;60146;52.498;13.462;2023-05-07T00:01:25;15.07;;;7.93;;
72235;SDS011;60146;52.498;13.462;2023-05-07T00:03:50;16.50;;;8.27;;
72235;SDS011;60146;52.498;13.462;2023-05-07T00:06:16;16.20;;;7.90;;
72235;SDS011;60146;52.498;13.462;2023-05-07T00:08:42;19.17;;;8.73;;
72235;SDS011;60146;52.498;13.462;2023-05-07T00:11:07;13.63;;;7.17;;
72235;SDS011;60146;52.498;13.462;2023-05-07T00:13:32;13.57;;;8.00;;
72235;SDS011;60146;52.498;13.462;2023-05-07T00:16:00;14.47;;;8.20;;
72235;SDS011;60146;52.498;13.462;2023-05-07T00:18:29;13.37;;;7.07;;
72235;SDS011;60146;52.498;13.462;2023-05-07T00:20:55;16.00;;;8.30;;
72235;SDS011;60146;52.498;13.462;2023-05-07T00:23:21;15.07;;;7.90;;
72235;SDS011;60146;52.498;13.462;2023-05-07T00:25:46;19.03;;;8.07;;
72235;SDS011;60146;52.498;13.462;2023-05-07T00:28:12;15.17;;;8.47;;
72235;SDS011;60146;52.498;13.462;2023-05-07T00:30:37;15.07;;;8.03;;
72235;SDS011;60146;52.498;13.462;2023-05-07T00:33:02;14.70;;;7.90;;
72235;SDS011;60146;52.498;13.462;2023-05-07T00:35:28;11.67;;;7.13;;
72235;SDS011;60146;52.498;13.462;2023-05-07T00:37:54;13.10;;;7.57;;
72235;SDS011;60146;52.498;13.462;2023-05-07T00:40:20;16.90;;;7.63;;
72235;SDS011;60146;52.498;13.462;2023-05-07T00:42:45;15.43;;;7.57;;
72235;SDS011;60146;52.498;13.462;2023-05-07T00:45:12;15.23;;;7.50;;
72235;SDS011;60146;52.498;13.462;2023-05-07T00:47:38;17.40;;;8.33;;
72235;SDS011;60146;52.498;13.462;2023-05-07T00:50:04;16.83;;;7.73;;
72235;SDS011;60146;52.498;13.462;2023-05-07T00:52:30;16.47;;;7.87;;
72235;SDS011;60146;52.498;13.462;2023-05-07T00:54:56;14.47;;;8.47;;
72235;SDS011;60146;52.498;13.462;2023-05-07T00:57:21;15.50;;;8.13;;
72235;SDS011;60146;52.498;13.462;2023-05-07T00:59:48;15.50;;;8.07;;
72235;SDS011;60146;52.498;13.462;2023-05-07T01:02:16;16.70;;;8.50;;
72235;SDS011;60146;52.498;13.462;2023-05-07T01:04:41;15.83;;;8.37;;
72235;SDS011;60146;52.498;13.462;2023-05-07T01:07:07;16.07;;;8.67;;
72235;SDS011;60146;52.498;13.462;2023-05-07T01:09:33;15.80;;;8.07;;
72235;SDS011;60146;52.498;13.462;2023-05-07T01:12:00;18.17;;;7.93;;
72235;SDS011;60146;52.498;13.462;2023-05-07T01:14:26;13.67;;;7.60;;
72235;SDS011;60146;52.498;13.462;2023-05-07T01:16:52;13.33;;;7.33;;
72235;SDS011;60146;52.498;13.462;2023-05-07T01:19:19;19.23;;;8.50;;
72235;SDS011;60146;52.498;13.462;2023-05-07T01:21:45;14.30;;;7.83;;
72235;SDS011;60146;52.498;13.462;2023-05-07T01:24:12;11.57;;;7.20;;
72235;SDS011;60146;52.498;13.462;2023-05-07T01:26:38;16.07;;;7.90;;
72235;SDS011;60146;52.498;13.462;2023-05-07T01:29:04;15.00;;;8.13;;
72235;SDS011;60146;52.498;13.462;2023-05-07T01:31:30;13.27;;;7.37;;
72235;SDS011;60146;52.498;13.462;2023-05-07T01:33:58;12.37;;;7.47;;
72235;SDS011;60146;52.498;13.462;2023-05-07T01:36:25;14.67;;;7.40;;
72235;SDS011;60146;52.498;13.462;2023-05-07T01:38:52;12.03;;;7.33;;
72235;SDS011;60146;52.498;13.462;2023-05-07T01:41:18;15.83;;;7.70;;
72235;SDS011;60146;52.498;13.462;2023-05-07T01:43:44;13.17;;;7.17;;
72235;SDS011;60146;52.498;13.462;2023-05-07T01:46:11;12.67;;;6.90;;
72235;SDS011;60146;52.498;13.462;2023-05-07T01:48:38;13.10;;;7.03;;
72235;SDS011;60146;52.498;13.462;2023-05-07T01:51:04;12.57;;;6.93;;
72235;SDS011;60146;52.498;13.462;2023-05-07T01:53:35;12.57;;;6.80;;
72235;SDS011;60146;52.498;13.462;2023-05-07T01:56:01;14.43;;;6.97;;
72235;SDS011;60146;52.498;13.462;2023-05-07T01:58:26;12.33;;;6.90;;
72235;SDS011;60146;52.498;13.462;2023-05-07T02:00:51;15.40;;;7.90;;
72235;SDS011;60146;52.498;13.462;2023-05-07T02:03:17;12.43;;;7.33;;
72235;SDS011;60146;52.498;13.462;2023-05-07T02:05:42;13.27;;;7.07;;
72235;SDS011;60146;52.498;13.462;2023-05-07T02:08:07;14.57;;;7.17;;
72235;SDS011;60146;52.498;13.462;2023-05-07T02:10:33;14.07;;;7.00;;
72235;SDS011;60146;52.498;13.462;2023-05-07T02:12:58;14.53;;;6.80;;
72235;SDS011;60146;52.498;13.462;2023-05-07T02:15:24;14.87;;;7.07;;
72235;SDS011;60146;52.498;13.462;2023-05-07T02:20:32;16.03;;;8.03;;
72235;SDS011;60146;52.498;13.462;2023-05-07T02:22:57;15.23;;;7.30;;
72235;SDS011;60146;52.498;13.462;2023-05-07T02:25:23;12.17;;;6.90;;
72235;SDS011;60146;52.498;13.462;2023-05-07T02:27:48;13.40;;;7.13;;
72235;SDS011;60146;52.498;13.462;2023-05-07T02:30:14;11.90;;;7.40;;
72235;SDS011;60146;52.498;13.462;2023-05-07T02:32:39;16.27;;;8.60;;
72235;SDS011;60146;52.498;13.462;2023-05-07T02:35:05;13.73;;;7.40;;
72235;SDS011;60146;52.498;13.462;2023-05-07T02:37:31;16.13;;;7.90;;
72235;SDS011;60146;52.498;13.462;2023-05-07T02:39:56;13.20;;;6.87;;
72235;SDS011;60146;52.498;13.462;2023-05-07T02:42:21;13.50;;;7.00;;
72235;SDS011;60146;52.498;13.462;2023-05-07T02:44:47;17.13;;;7.73;;
72235;SDS011;60146;52.498;13.462;2023-05-07T02:47:13;20.13;;;8.40;;
72235;SDS011;60146;52.498;13.462;2023-05-07T02:49:39;13.50;;;7.07;;
72235;SDS011;60146;52.498;13.462;2023-05-07T02:52:04;18.57;;;8.87;;
72235;SDS011;60146;52.498;13.462;2023-05-07T02:54:30;13.63;;;7.60;;
72235;SDS011;60146;52.498;13.462;2023-05-07T02:56:55;16.40;;;7.30;;
72235;SDS011;60146;52.498;13.462;2023-05-07T02:59:21;15.97;;;7.60;;
72235;SDS011;60146;52.498;13.462;2023-05-07T03:01:46;15.40;;;6.93;;
72235;SDS011;60146;52.498;13.462;2023-05-07T03:04:13;12.40;;;6.60;;
72235;SDS011;60146;52.498;13.462;2023-05-07T03:06:38;12.37;;;6.60;;
72235;SDS011;60146;52.498;13.462;2023-05-07T03:09:03;13.13;;;7.30;;
72235;SDS011;60146;52.498;13.462;2023-05-07T03:11:29;10.03;;;5.87;;
72235;SDS011;60146;52.498;13.462;2023-05-07T03:13:54;13.00;;;7.40;;
72235;SDS011;60146;52.498;13.462;2023-05-07T03:16:20;12.00;;;6.47;;
72235;SDS011;60146;52.498;13.462;2023-05-07T03:18:45;11.70;;;6.70;;
72235;SDS011;60146;52.498;13.462;2023-05-07T03:21:11;12.93;;;6.77;;
72235;SDS011;60146;52.498;13.462;2023-05-07T03:23:36;13.50;;;6.33;;
72235;SDS011;60146;52.498;13.462;2023-05-07T03:26:01;12.53;;;6.87;;
72235;SDS011;60146;52.498;13.462;2023-05-07T03:28:27;12.50;;;6.57;;
72235;SDS011;60146;52.498;13.462;2023-05-07T03:30:52;11.77;;;6.83;;
72235;SDS011;60146;52.498;13.462;2023-05-07T03:33:17;14.00;;;6.87;;
72235;SDS011;60146;52.498;13.462;2023-05-07T03:35:43;12.83;;;7.50;;
72235;SDS011;60146;52.498;13.462;2023-05-07T03:38:08;12.30;;;7.30;;
72235;SDS011;60146;52.498;13.462;2023-05-07T03:40:33;15.13;;;7.47;;
72235;SDS011;60146;52.498;13.462;2023-05-07T03:42:59;14.13;;;7.40;;
72235;SDS011;60146;52.498;13.462;2023-05-07T03:45:25;13.93;;;7.80;;
72235;SDS011;60146;52.498;13.462;2023-05-07T03:47:50;14.73;;;7.10;;
72235;SDS011;60146;52.498;13.462;2023-05-07T03:50:16;13.83;;;8.13;;
72235;SDS011;60146;52.498;13.462;2023-05-07T03:52:41;11.37;;;7.20;;
72235;SDS011;60146;52.498;13.462;2023-05-07T03:55:07;11.83;;;6.80;;
72235;SDS011;60146;52.498;13.462;2023-05-07T03:57:32;13.73;;;7.33;;
72235;SDS011;60146;52.498;13.462;2023-05-07T03:59:58;12.53;;;6.77;;
72235;SDS011;60146;52.498;13.462;2023-05-07T04:02:23;10.77;;;6.63;;
72235;SDS011;60146;52.498;13.462;2023-05-07T04:04:48;11.37;;;6.53;;
72235;SDS011;60146;52.498;13.462;2023-05-07T04:07:14;12.30;;;6.90;;
72235;SDS011;60146;52.498;13.462;2023-05-07T04:09:40;13.27;;;7.00;;
72235;SDS011;60146;52.498;13.462;2023-05-07T04:12:05;13.03;;;6.60;;
72235;SDS011;60146;52.498;13.462;2023-05-07T04:14:30;14.63;;;7.03;;
72235;SDS011;60146;52.498;13.462;2023-05-07T04:16:57;13.53;;;7.03;;
72235;SDS011;60146;52.498;13.462;2023-05-07T04:19:24;14.73;;;6.73;;
72235;SDS011;60146;52.498;13.462;2023-05-07T04:21:49;11.37;;;6.13;;
72235;SDS011;60146;52.498;13.462;2023-05-07T04:24:14;10.43;;;5.53;;
72235;SDS011;60146;52.498;13.462;2023-05-07T04:26:40;11.50;;;6.40;;
72235;SDS011;60146;52.498;13.462;2023-05-07T04:29:05;10.07;;;6.00;;
72235;SDS011;60146;52.498;13.462;2023-05-07T04:31:30;11.90;;;6.33;;
72235;SDS011;60146;52.498;13.462;2023-05-07T04:33:56;11.87;;;6.17;;
72235;SDS011;60146;52.498;13.462;2023-05-07T04:36:22;12.50;;;5.80;;
72235;SDS011;60146;52.498;13.462;2023-05-07T04:38:47;9.93;;;5.53;;
72235;SDS011;60146;52.498;13.462;2023-05-07T04:41:12;14.60;;;5.63;;
72235;SDS011;60146;52.498;13.462;2023-05-07T04:43:38;10.83;;;5.90;;
72235;SDS011;60146;52.498;13.462;2023-05-07T04:46:03;10.83;;;5.90;;
72235;SDS011;60146;52.498;13.462;2023-05-07T04:48:29;7.70;;;4.83;;
72235;SDS011;60146;52.498;13.462;2023-05-07T04:50:55;9.40;;;5.07;;
72235;SDS011;60146;52.498;13.462;2023-05-07T04:53:20;9.87;;;5.43;;
72235;SDS011;60146;52.498;13.462;2023-05-07T04:55:46;13.20;;;5.93;;
72235;SDS011;60146;52.498;13.462;2023-05-07T04:58:12;10.87;;;6.10;;
72235;SDS011;60146;52.498;13.462;2023-05-07T05:00:37;11.07;;;5.83;;
72235;SDS011;60146;52.498;13.462;2023-05-07T05:03:04;9.13;;;4.97;;
72235;SDS011;60146;52.498;13.462;2023-05-07T05:05:30;8.77;;;4.80;;
72235;SDS011;60146;52.498;13.462;2023-05-07T05:07:55;9.17;;;4.70;;
72235;SDS011;60146;52.498;13.462;2023-05-07T05:10:21;10.57;;;5.20;;
72235;SDS011;60146;52.498;13.462;2023-05-07T05:12:47;10.00;;;5.63;;
72235;SDS011;60146;52.498;13.462;2023-05-07T05:15:12;7.03;;;4.73;;
72235;SDS011;60146;52.498;13.462;2023-05-07T05:17:38;9.13;;;4.77;;
72235;SDS011;60146;52.498;13.462;2023-05-07T05:20:04;10.70;;;4.50;;
72235;SDS011;60146;52.498;13.462;2023-05-07T05:22:30;10.30;;;5.10;;
72235;SDS011;60146;52.498;13.462;2023-05-07T05:24:56;10.07;;;5.20;;
72235;SDS011;60146;52.498;13.462;2023-05-07T05:27:22;9.27;;;4.87;;
72235;SDS011;60146;52.498;13.462;2023-05-07T05:29:47;8.40;;;4.57;;
72235;SDS011;60146;52.498;13.462;2023-05-07T05:32:12;8.47;;;4.83;;
72235;SDS011;60146;52.498;13.462;2023-05-07T05:34:38;9.23;;;5.00;;
72235;SDS011;60146;52.498;13.462;2023-05-07T05:37:03;8.57;;;4.90;;
72235;SDS011;60146;52.498;13.462;2023-05-07T05:39:30;12.03;;;5.80;;
72235;SDS011;60146;52.498;13.462;2023-05-07T05:41:58;13.63;;;6.38;;
72235;SDS011;60146;52.498;13.462;2023-05-07T05:44:42;8.93;;;4.87;;
72235;SDS011;60146;52.498;13.462;2023-05-07T05:47:08;10.43;;;4.93;;
72235;SDS011;60146;52.498;13.462;2023-05-07T05:49:37;11.73;;;5.93;;
72235;SDS011;60146;52.498;13.462;2023-05-07T05:52:03;13.97;;;6.70;;
72235;SDS011;60146;52.498;13.462;2023-05-07T05:54:28;10.50;;;5.47;;
72235;SDS011;60146;52.498;13.462;2023-05-07T05:56:54;16.60;;;5.97;;
72235;SDS011;60146;52.498;13.462;2023-05-07T05:59:56;12.43;;;5.50;;
72235;SDS011;60146;52.498;13.462;2023-05-07T06:02:22;14.87;;;5.90;;
72235;SDS011;60146;52.498;13.462;2023-05-07T06:04:47;11.13;;;5.57;;
72235;SDS011;60146;52.498;13.462;2023-05-07T06:07:13;16.07;;;7.13;;
72235;SDS011;60146;52.498;13.462;2023-05-07T06:09:38;11.00;;;5.77;;
72235;SDS011;60146;52.498;13.462;2023-05-07T06:12:03;10.63;;;5.57;;
72235;SDS011;60146;52.498;13.462;2023-05-07T06:14:29;8.97;;;5.23;;
72235;SDS011;60146;52.498;13.462;2023-05-07T06:16:54;11.10;;;5.23;;
72235;SDS011;60146;52.498;13.462;2023-05-07T06:19:20;9.83;;;5.13;;
72235;SDS011;60146;52.498;13.462;2023-05-07T06:21:48;10.30;;;4.87;;
72235;SDS011;60146;52.498;13.462;2023-05-07T06:24:13;13.50;;;5.67;;
72235;SDS011;60146;52.498;13.462;2023-05-07T06:26:39;10.80;;;5.80;;
72235;SDS011;60146;52.498;13.462;2023-05-07T06:29:04;9.13;;;5.03;;
72235;SDS011;60146;52.498;13.462;2023-05-07T06:31:30;12.20;;;5.67;;
72235;SDS011;60146;52.498;13.462;2023-05-07T06:33:56;11.53;;;5.67;;
72235;SDS011;60146;52.498;13.462;2023-05-07T06:36:22;9.90;;;5.13;;
72235;SDS011;60146;52.498;13.462;2023-05-07T06:44:50;9.47;;;5.27;;
72235;SDS011;60146;52.498;13.462;2023-05-07T06:51:25;7.17;;;4.57;;
72235;SDS011;60146;52.498;13.462;2023-05-07T06:53:53;8.60;;;4.80;;
72235;SDS011;60146;52.498;13.462;2023-05-07T06:56:56;8.33;;;4.70;;
72235;SDS011;60146;52.498;13.462;2023-05-07T07:03:45;8.53;;;4.70;;
72235;SDS011;60146;52.498;13.462;2023-05-07T07:18:14;6.80;;;4.23;;
72235;SDS011;60146;52.498;13.462;2023-05-07T07:20:40;7.20;;;3.80;;
72235;SDS011;60146;52.498;13.462;2023-05-07T07:23:09;6.73;;;3.67;;
72235;SDS011;60146;52.498;13.462;2023-05-07T07:29:28;6.27;;;3.90;;
72235;SDS011;60146;52.498;13.462;2023-05-07T07:32:00;6.07;;;3.90;;
72235;SDS011;60146;52.498;13.462;2023-05-07T07:34:49;7.10;;;4.60;;
72235;SDS011;60146;52.498;13.462;2023-05-07T07:51:04;5.33;;;3.50;;
72235;SDS011;60146;52.498;13.462;2023-05-07T07:53:30;6.80;;;3.20;;
72235;SDS011;60146;52.498;13.462;2023-05-07T07:55:59;5.83;;;3.37;;
72235;SDS011;60146;52.498;13.462;2023-05-07T07:58:30;6.50;;;2.90;;
72235;SDS011;60146;52.498;13.462;2023-05-07T08:01:00;6.73;;;3.57;;
72235;SDS011;60146;52.498;13.462;2023-05-07T08:03:25;5.43;;;3.40;;
72235;SDS011;60146;52.498;13.462;2023-05-07T08:05:51;5.00;;;3.20;;
72235;SDS011;60146;52.498;13.462;2023-05-07T08:08:22;5.20;;;3.00;;
72235;SDS011;60146;52.498;13.462;2023-05-07T08:11:20;4.60;;;2.80;;
72235;SDS011;60146;52.498;13.462;2023-05-07T08:14:01;5.77;;;2.40;;
72235;SDS011;60146;52.498;13.462;2023-05-07T08:16:38;8.20;;;4.43;;
72235;SDS011;60146;52.498;13.462;2023-05-07T08:19:06;4.63;;;2.73;;
72235;SDS011;60146;52.498;13.462;2023-05-07T08:21:42;3.67;;;2.43;;
72235;SDS011;60146;52.498;13.462;2023-05-07T08:24:18;4.50;;;2.97;;
72235;SDS011;60146;52.498;13.462;2023-05-07T08:27:05;5.40;;;2.73;;
72235;SDS011;60146;52.498;13.462;2023-05-07T08:29:39;6.23;;;3.20;;
72235;SDS011;60146;52.498;13.462;2023-05-07T08:32:33;3.63;;;2.80;;
72235;SDS011;60146;52.498;13.462;2023-05-07T08:35:17;3.73;;;2.30;;
72235;SDS011;60146;52.498;13.462;2023-05-07T08:37:52;4.57;;;2.47;;
72235;SDS011;60146;52.498;13.462;2023-05-07T08:40:18;4.93;;;2.70;;
72235;SDS011;60146;52.498;13.462;2023-05-07T08:42:48;4.37;;;2.40;;
72235;SDS011;60146;52.498;13.462;2023-05-07T08:45:15;3.70;;;2.72;;
72235;SDS011;60146;52.498;13.462;2023-05-07T08:47:44;5.10;;;2.80;;
72235;SDS011;60146;52.498;13.462;2023-05-07T08:50:12;4.38;;;2.50;;
72235;SDS011;60146;52.498;13.462;2023-05-07T08:52:45;3.58;;;2.50;;
72235;SDS011;60146;52.498;13.462;2023-05-07T08:55:16;3.22;;;2.10;;
72235;SDS011;60146;52.498;13.462;2023-05-07T08:57:50;4.53;;;2.10;;
72235;SDS011;60146;52.498;13.462;2023-05-07T09:00:34;5.20;;;2.33;;
72235;SDS011;60146;52.498;13.462;2023-05-07T09:03:05;2.75;;;2.10;;
72235;SDS011;60146;52.498;13.462;2023-05-07T09:05:30;3.55;;;2.40;;
72235;SDS011;60146;52.498;13.462;2023-05-07T09:07:58;3.42;;;2.13;;
72235;SDS011;60146;52.498;13.462;2023-05-07T09:10:25;4.03;;;2.30;;
72235;SDS011;60146;52.498;13.462;2023-05-07T09:12:51;5.45;;;2.63;;
72235;SDS011;60146;52.498;13.462;2023-05-07T09:15:16;4.20;;;2.50;;
72235;SDS011;60146;52.498;13.462;2023-05-07T09:17:42;3.30;;;2.20;;
72235;SDS011;60146;52.498;13.462;2023-05-07T09:20:08;3.45;;;2.20;;
72235;SDS011;60146;52.498;13.462;2023-05-07T09:22:37;4.93;;;2.38;;
72235;SDS011;60146;52.498;13.462;2023-05-07T09:25:04;3.50;;;2.43;;
72235;SDS011;60146;52.498;13.462;2023-05-07T09:27:31;5.25;;;2.35;;
72235;SDS011;60146;52.498;13.462;2023-05-07T09:29:56;3.63;;;2.30;;
72235;SDS011;60146;52.498;13.462;2023-05-07T09:32:21;4.82;;;2.72;;
72235;SDS011;60146;52.498;13.462;2023-05-07T09:34:47;6.07;;;3.10;;
72235;SDS011;60146;52.498;13.462;2023-05-07T09:37:12;8.32;;;2.50;;
72235;SDS011;60146;52.498;13.462;2023-05-07T09:42:04;4.13;;;2.30;;
72235;SDS011;60146;52.498;13.462;2023-05-07T09:44:31;4.95;;;2.40;;
72235;SDS011;60146;52.498;13.462;2023-05-07T09:46:57;2.97;;;2.28;;
72235;SDS011;60146;52.498;13.462;2023-05-07T09:49:25;4.00;;;2.10;;
72235;SDS011;60146;52.498;13.462;2023-05-07T09:51:55;3.80;;;1.88;;
72235;SDS011;60146;52.498;13.462;2023-05-07T09:54:21;3.15;;;1.83;;
72235;SDS011;60146;52.498;13.462;2023-05-07T09:56:50;2.60;;;1.55;;
72235;SDS011;60146;52.498;13.462;2023-05-07T09:59:17;2.80;;;1.90;;
72235;SDS011;60146;52.498;13.462;2023-05-07T10:01:43;2.25;;;1.52;;
72235;SDS011;60146;52.498;13.462;2023-05-07T10:04:10;3.00;;;1.45;;
72235;SDS011;60146;52.498;13.462;2023-05-07T10:06:36;1.60;;;1.50;;
72235;SDS011;60146;52.498;13.462;2023-05-07T10:09:02;1.92;;;1.50;;
72235;SDS011;60146;52.498;13.462;2023-05-07T10:11:31;1.85;;;1.50;;
72235;SDS011;60146;52.498;13.462;2023-05-07T10:13:58;2.42;;;1.33;;
72235;SDS011;60146;52.498;13.462;2023-05-07T10:16:24;1.95;;;1.50;;
72235;SDS011;60146;52.498;13.462;2023-05-07T10:18:50;2.75;;;1.50;;
72235;SDS011;60146;52.498;13.462;2023-05-07T10:21:20;2.47;;;1.40;;
72235;SDS011;60146;52.498;13.462;2023-05-07T10:23:54;4.50;;;1.30;;
72235;SDS011;60146;52.498;13.462;2023-05-07T10:26:31;3.70;;;1.40;;
72235;SDS011;60146;52.498;13.462;2023-05-07T10:28:58;2.38;;;1.20;;
72235;SDS011;60146;52.498;13.462;2023-05-07T10:34:37;2.42;;;1.50;;
72235;SDS011;60146;52.498;13.462;2023-05-07T10:37:06;2.67;;;1.80;;
72235;SDS011;60146;52.498;13.462;2023-05-07T10:39:34;2.75;;;1.80;;
72235;SDS011;60146;52.498;13.462;2023-05-07T10:42:09;4.03;;;2.00;;
72235;SDS011;60146;52.498;13.462;2023-05-07T10:44:38;4.75;;;1.70;;
72235;SDS011;60146;52.498;13.462;2023-05-07T10:47:04;3.08;;;1.40;;
72235;SDS011;60146;52.498;13.462;2023-05-07T10:49:30;1.95;;;1.38;;
72235;SDS011;60146;52.498;13.462;2023-05-07T10:52:11;2.58;;;1.30;;
72235;SDS011;60146;52.498;13.462;2023-05-07T10:54:40;2.40;;;1.40;;
72235;SDS011;60146;52.498;13.462;2023-05-07T10:59:53;2.15;;;1.20;;
72235;SDS011;60146;52.498;13.462;2023-05-07T11:02:19;2.55;;;1.58;;
72235;SDS011;60146;52.498;13.462;2023-05-07T11:04:44;1.80;;;1.50;;
72235;SDS011;60146;52.498;13.462;2023-05-07T11:07:26;2.67;;;1.30;;
72235;SDS011;60146;52.498;13.462;2023-05-07T11:15:12;2.45;;;1.52;;
72235;SDS011;60146;52.498;13.462;2023-05-07T11:17:53;2.13;;;1.40;;
72235;SDS011;60146;52.498;13.462;2023-05-07T11:26:04;2.70;;;1.50;;
72235;SDS011;60146;52.498;13.462;2023-05-07T11:28:30;2.20;;;1.60;;
72235;SDS011;60146;52.498;13.462;2023-05-07T11:30:56;2.17;;;1.38;;
72235;SDS011;60146;52.498;13.462;2023-05-07T11:33:23;2.03;;;1.50;;
72235;SDS011;60146;52.498;13.462;2023-05-07T11:35:50;1.85;;;1.25;;
72235;SDS011;60146;52.498;13.462;2023-05-07T11:38:17;1.58;;;1.40;;
72235;SDS011;60146;52.498;13.462;2023-05-07T11:40:54;2.15;;;1.70;;
72235;SDS011;60146;52.498;13.462;2023-05-07T11:43:21;2.67;;;1.38;;
72235;SDS011;60146;52.498;13.462;2023-05-07T11:45:49;2.50;;;1.48;;
72235;SDS011;60146;52.498;13.462;2023-05-07T11:48:15;1.90;;;1.40;;
72235;SDS011;60146;52.498;13.462;2023-05-07T11:50:51;2.40;;;1.55;;
72235;SDS011;60146;52.498;13.462;2023-05-07T11:53:17;1.80;;;1.40;;
72235;SDS011;60146;52.498;13.462;2023-05-07T11:55:43;2.42;;;1.55;;
72235;SDS011;60146;52.498;13.462;2023-05-07T11:58:10;2.53;;;1.60;;
72235;SDS011;60146;52.498;13.462;2023-05-07T12:00:37;2.10;;;1.30;;
72235;SDS011;60146;52.498;13.462;2023-05-07T12:03:05;2.05;;;1.40;;
72235;SDS011;60146;52.498;13.462;2023-05-07T12:05:31;1.67;;;1.20;;
72235;SDS011;60146;52.498;13.462;2023-05-07T12:07:59;3.92;;;1.48;;
72235;SDS011;60146;52.498;13.462;2023-05-07T12:10:25;2.33;;;1.08;;
72235;SDS011;60146;52.498;13.462;2023-05-07T12:12:50;4.03;;;1.30;;
72235;SDS011;60146;52.498;13.462;2023-05-07T12:15:16;2.35;;;1.00;;
72235;SDS011;60146;52.498;13.462;2023-05-07T12:17:42;2.47;;;1.23;;
72235;SDS011;60146;52.498;13.462;2023-05-07T12:20:08;3.28;;;1.30;;
72235;SDS011;60146;52.498;13.462;2023-05-07T12:22:35;2.78;;;1.38;;
72235;SDS011;60146;52.498;13.462;2023-05-07T12:25:01;2.00;;;1.33;;
72235;SDS011;60146;52.498;13.462;2023-05-07T12:27:28;2.72;;;1.38;;
72235;SDS011;60146;52.498;13.462;2023-05-07T12:29:54;1.77;;;1.20;;
72235;SDS011;60146;52.498;13.462;2023-05-07T12:32:20;1.83;;;1.17;;
72235;SDS011;60146;52.498;13.462;2023-05-07T12:34:46;3.13;;;1.52;;
72235;SDS011;60146;52.498;13.462;2023-05-07T12:37:14;2.90;;;1.30;;
72235;SDS011;60146;52.498;13.462;2023-05-07T12:39:50;2.63;;;1.67;;
72235;SDS011;60146;52.498;13.462;2023-05-07T12:42:32;1.80;;;1.25;;
72235;SDS011;60146;52.498;13.462;2023-05-07T12:45:01;3.85;;;1.20;;
72235;SDS011;60146;52.498;13.462;2023-05-07T12:47:32;2.70;;;2.00;;
72235;SDS011;60146;52.498;13.462;2023-05-07T12:49:58;2.20;;;1.40;;
72235;SDS011;60146;52.498;13.462;2023-05-07T12:52:24;1.80;;;1.10;;
72235;SDS011;60146;52.498;13.462;2023-05-07T12:54:50;4.32;;;1.48;;
72235;SDS011;60146;52.498;13.462;2023-05-07T12:57:15;3.00;;;1.10;;
72235;SDS011;60146;52.498;13.462;2023-05-07T12:59:44;1.50;;;1.08;;
72235;SDS011;60146;52.498;13.462;2023-05-07T13:02:10;3.63;;;1.40;;
72235;SDS011;60146;52.498;13.462;2023-05-07T13:04:35;1.90;;;1.00;;
72235;SDS011;60146;52.498;13.462;2023-05-07T13:07:01;1.58;;;1.10;;
72235;SDS011;60146;52.498;13.462;2023-05-07T13:09:27;1.45;;;1.00;;
72235;SDS011;60146;52.498;13.462;2023-05-07T13:11:54;2.13;;;1.10;;
72235;SDS011;60146;52.498;13.462;2023-05-07T13:14:19;2.80;;;1.38;;
72235;SDS011;60146;52.498;13.462;2023-05-07T13:16:46;1.70;;;1.20;;
72235;SDS011;60146;52.498;13.462;2023-05-07T13:19:11;1.40;;;1.20;;
72235;SDS011;60146;52.498;13.462;2023-05-07T13:21:37;1.58;;;0.98;;
72235;SDS011;60146;52.498;13.462;2023-05-07T13:24:02;1.13;;;0.95;;
72235;SDS011;60146;52.498;13.462;2023-05-07T13:26:29;1.58;;;1.10;;
72235;SDS011;60146;52.498;13.462;2023-05-07T13:28:56;1.58;;;1.10;;
72235;SDS011;60146;52.498;13.462;2023-05-07T13:31:21;3.15;;;1.10;;
72235;SDS011;60146;52.498;13.462;2023-05-07T13:33:47;1.98;;;1.17;;
72235;SDS011;60146;52.498;13.462;2023-05-07T13:36:12;2.20;;;1.10;;
72235;SDS011;60146;52.498;13.462;2023-05-07T13:38:38;1.58;;;1.33;;
72235;SDS011;60146;52.498;13.462;2023-05-07T13:41:04;1.98;;;1.30;;
72235;SDS011;60146;52.498;13.462;2023-05-07T13:43:30;3.08;;;1.20;;
72235;SDS011;60146;52.498;13.462;2023-05-07T13:45:56;4.15;;;1.50;;
72235;SDS011;60146;52.498;13.462;2023-05-07T13:48:22;1.52;;;1.42;;
72235;SDS011;60146;52.498;13.462;2023-05-07T13:50:47;4.88;;;1.90;;
72235;SDS011;60146;52.498;13.462;2023-05-07T13:53:12;2.00;;;1.38;;
72235;SDS011;60146;52.498;13.462;2023-05-07T13:55:40;1.42;;;1.00;;
72235;SDS011;60146;52.498;13.462;2023-05-07T13:58:05;2.03;;;1.00;;
72235;SDS011;60146;52.498;13.462;2023-05-07T14:00:31;1.60;;;1.20;;
72235;SDS011;60146;52.498;13.462;2023-05-07T14:02:56;2.63;;;1.30;;
72235;SDS011;60146;52.498;13.462;2023-05-07T14:05:22;1.55;;;1.20;;
72235;SDS011;60146;52.498;13.462;2023-05-07T14:07:49;5.68;;;1.48;;
72235;SDS011;60146;52.498;13.462;2023-05-07T14:10:18;3.08;;;1.30;;
72235;SDS011;60146;52.498;13.462;2023-05-07T14:12:44;2.17;;;1.30;;
72235;SDS011;60146;52.498;13.462;2023-05-07T14:15:10;2.10;;;1.38;;
72235;SDS011;60146;52.498;13.462;2023-05-07T14:17:36;1.90;;;1.30;;
72235;SDS011;60146;52.498;13.462;2023-05-07T14:20:01;1.40;;;1.20;;
72235;SDS011;60146;52.498;13.462;2023-05-07T14:22:27;2.80;;;1.38;;
72235;SDS011;60146;52.498;13.462;2023-05-07T14:24:52;3.15;;;1.40;;
72235;SDS011;60146;52.498;13.462;2023-05-07T14:27:17;1.73;;;1.20;;
72235;SDS011;60146;52.498;13.462;2023-05-07T14:29:43;2.78;;;1.30;;
72235;SDS011;60146;52.498;13.462;2023-05-07T14:32:10;2.13;;;1.17;;
72235;SDS011;60146;52.498;13.462;2023-05-07T14:34:35;3.28;;;1.10;;
72235;SDS011;60146;52.498;13.462;2023-05-07T14:37:01;1.73;;;1.23;;
72235;SDS011;60146;52.498;13.462;2023-05-07T14:39:26;2.33;;;1.30;;
72235;SDS011;60146;52.498;13.462;2023-05-07T14:41:52;2.28;;;1.10;;
72235;SDS011;60146;52.498;13.462;2023-05-07T14:44:19;2.40;;;0.85;;
72235;SDS011;60146;52.498;13.462;2023-05-07T14:46:45;1.60;;;1.10;;
72235;SDS011;60146;52.498;13.462;2023-05-07T14:49:10;1.88;;;1.20;;
72235;SDS011;60146;52.498;13.462;2023-05-07T14:51:41;1.40;;;1.00;;
72235;SDS011;60146;52.498;13.462;2023-05-07T14:54:10;1.80;;;1.33;;
72235;SDS011;60146;52.498;13.462;2023-05-07T14:56:35;3.83;;;1.30;;
72235;SDS011;60146;52.498;13.462;2023-05-07T14:59:02;1.70;;;1.10;;
72235;SDS011;60146;52.498;13.462;2023-05-07T15:01:27;2.05;;;1.10;;
72235;SDS011;60146;52.498;13.462;2023-05-07T15:03:53;2.28;;;1.00;;
72235;SDS011;60146;52.498;13.462;2023-05-07T15:06:18;1.33;;;1.05;;
72235;SDS011;60146;52.498;13.462;2023-05-07T15:08:43;2.50;;;1.38;;
72235;SDS011;60146;52.498;13.462;2023-05-07T15:11:09;2.50;;;1.10;;
72235;SDS011;60146;52.498;13.462;2023-05-07T15:13:34;1.83;;;1.30;;
72235;SDS011;60146;52.498;13.462;2023-05-07T15:16:00;3.00;;;1.30;;
72235;SDS011;60146;52.498;13.462;2023-05-07T15:18:25;2.60;;;1.10;;
72235;SDS011;60146;52.498;13.462;2023-05-07T15:20:50;2.08;;;1.10;;
72235;SDS011;60146;52.498;13.462;2023-05-07T15:23:16;5.07;;;1.48;;
72235;SDS011;60146;52.498;13.462;2023-05-07T15:25:41;3.40;;;1.23;;
72235;SDS011;60146;52.498;13.462;2023-05-07T15:28:07;4.05;;;1.15;;
72235;SDS011;60146;52.498;13.462;2023-05-07T15:30:32;1.50;;;1.00;;
72235;SDS011;60146;52.498;13.462;2023-05-07T15:32:58;1.10;;;1.00;;
72235;SDS011;60146;52.498;13.462;2023-05-07T15:35:23;4.30;;;1.20;;